Time;durP1;ratioP1;P1;durP2;ratioP2;P2;SDS_P1;SDS_P2;PMS_P1;PMS_P2;Temp;Humidity;BMP_temperature;BMP_pressure;BME280_temperature;BME280_humidity;BME280_pressure;Samples;Min_cycle;Max_cycle;Signal;HPM_P1;HPM_P2
2022/06/19 00:00:53;;;;;;;201.30;189.88;;;;;;;25.10;44.48;96259.31;5072641;28;20280;-67
2022/06/19 00:03:26;;;;;;;201.23;189.73;;;;;;;25.07;44.69;96263.47;5072525;28;20185;-68
2022/06/19 00:05:52;;;;;;;209.93;198.32;;;;;;;25.04;44.73;96258.75;5072780;28;20177;-68
2022/06/19 00:08:18;;;;;;;222.77;210.35;;;;;;;25.14;44.35;96252.16;5072419;28;20634;-67
2022/06/19 00:10:43;;;;;;;216.80;204.90;;;;;;;25.11;44.28;96252.84;5072553;28;20268;-68
2022/06/19 00:13:08;;;;;;;243.75;230.57;;;;;;;25.02;44.39;96247.56;5072636;28;20181;-67
2022/06/19 00:15:34;;;;;;;254.93;241.10;;;;;;;25.00;44.78;96246.31;5072491;28;20209;-68
2022/06/19 00:18:00;;;;;;;270.15;255.82;;;;;;;24.81;45.39;96242.22;5072424;28;20674;-68
2022/06/19 00:20:25;;;;;;;261.85;247.45;;;;;;;24.84;45.13;96235.44;5057357;28;20196;-67
2022/06/19 00:22:50;;;;;;;326.55;309.10;;;;;;;24.85;45.52;96231.63;5072256;28;20701;-67
2022/06/19 00:25:16;;;;;;;355.77;336.55;;;;;;;24.68;45.50;96229.91;5072779;28;20268;-67
2022/06/19 00:27:41;;;;;;;442.48;418.08;;;;;;;24.82;45.83;96226.91;5072288;28;20192;-68
2022/06/19 00:30:10;;;;;;;478.55;452.30;;;;;;;24.69;45.79;96231.47;5072319;28;20195;-67
2022/06/19 00:32:36;;;;;;;526.40;497.30;;;;;;;24.66;45.76;96220.63;5071741;28;20243;-67
2022/06/19 00:35:01;;;;;;;537.90;508.10;;;;;;;24.73;45.72;96220.88;5072285;28;20177;-67
2022/06/19 00:37:29;;;;;;;496.23;468.40;;;;;;;24.60;46.43;96232.66;5072376;28;20268;-67
2022/06/19 00:39:55;;;;;;;480.77;453.80;;;;;;;24.47;46.55;96215.75;5071342;28;20773;-68
2022/06/19 00:42:24;;;;;;;434.60;409.98;;;;;;;24.49;46.36;96210.06;5071914;28;20189;-67
2022/06/19 00:44:50;;;;;;;384.13;362.05;;;;;;;24.55;46.01;96200.72;5071640;28;20230;-67
2022/06/19 00:47:38;;;;;;;377.38;356.45;;;;;;;24.54;46.05;96204.50;5071668;28;20221;-67
2022/06/19 00:50:22;;;;;;;318.98;301.08;;;;;;;24.60;45.97;96212.00;5070405;28;20228;-68
2022/06/19 00:52:48;;;;;;;334.13;315.92;;;;;;;24.61;46.01;96202.06;5072255;28;20173;-68
2022/06/19 00:55:21;;;;;;;377.27;355.98;;;;;;;24.61;45.33;96199.38;5072549;28;20181;-68
2022/06/19 00:57:51;;;;;;;361.20;341.20;;;;;;;24.48;45.39;96187.84;5075749;28;20650;-68
2022/06/19 01:00:26;;;;;;;389.67;368.65;;;;;;;24.58;45.55;96184.75;5076300;28;20254;-68
2022/06/19 01:02:55;;;;;;;393.30;371.52;;;;;;;24.50;45.36;96179.47;5076040;28;20263;-67
2022/06/19 01:05:22;;;;;;;353.98;334.35;;;;;;;24.65;45.11;96179.63;5076058;28;20264;-68
2022/06/19 01:07:48;;;;;;;370.40;350.27;;;;;;;24.54;45.60;96175.81;5075617;28;20189;-68
2022/06/19 01:10:13;;;;;;;400.20;378.58;;;;;;;24.53;45.44;96176.13;5074972;28;20269;-67
2022/06/19 01:12:41;;;;;;;386.15;365.20;;;;;;;24.40;45.63;96178.78;5075588;28;20189;-67
2022/06/19 01:15:11;;;;;;;456.10;431.25;;;;;;;24.34;45.54;96173.97;5058279;28;20203;-67
2022/06/19 01:17:37;;;;;;;472.13;446.40;;;;;;;24.43;44.65;96178.13;5075007;28;20201;-68
2022/06/19 01:20:10;;;;;;;513.92;485.73;;;;;;;24.46;44.86;96182.06;5074595;28;20188;-68
2022/06/19 01:22:50;;;;;;;526.90;497.52;;;;;;;24.48;44.64;96179.81;5074641;28;20189;-68
2022/06/19 01:25:18;;;;;;;520.00;491.15;;;;;;;24.47;44.40;96175.56;5074866;28;20181;-68
2022/06/19 01:30:41;;;;;;;534.58;504.58;;;;;;;24.38;44.22;96167.59;5074899;28;20251;-67
2022/06/19 01:33:12;;;;;;;542.33;511.25;;;;;;;24.43;44.21;96161.25;5074437;28;20268;-67
2022/06/19 01:35:41;;;;;;;543.35;513.38;;;;;;;24.34;44.47;96157.88;5074883;28;20256;-67
2022/06/19 01:38:13;;;;;;;564.58;532.47;;;;;;;24.33;44.20;96157.09;5074437;28;20233;-67
2022/06/19 01:40:41;;;;;;;550.22;519.45;;;;;;;24.32;44.54;96147.50;5075227;28;20178;-67
2022/06/19 01:43:08;;;;;;;523.13;493.58;;;;;;;24.29;44.11;96150.84;5074577;28;20181;-67
2022/06/19 01:45:34;;;;;;;530.15;500.33;;;;;;;24.29;43.87;96150.06;5074426;28;20347;-69
2022/06/19 01:48:01;;;;;;;502.20;474.50;;;;;;;24.23;43.90;96152.16;5074741;28;20208;-68
2022/06/19 01:50:30;;;;;;;513.40;484.95;;;;;;;24.30;44.12;96138.22;5072571;28;20189;-67
2022/06/19 01:53:13;;;;;;;491.40;464.17;;;;;;;24.22;43.83;96137.19;5074502;28;20209;-67
2022/06/19 01:55:39;;;;;;;511.85;482.77;;;;;;;24.29;43.66;96137.44;5072499;28;20182;-68
2022/06/19 01:58:06;;;;;;;496.73;469.40;;;;;;;24.23;44.02;96127.25;5074617;28;20254;-67
2022/06/19 02:00:35;;;;;;;509.48;481.63;;;;;;;24.22;43.95;96136.41;5056470;28;20223;-68
2022/06/19 02:03:10;;;;;;;481.52;454.60;;;;;;;24.25;43.71;96130.38;5074545;28;20215;-68
2022/06/19 02:05:37;;;;;;;507.08;478.98;;;;;;;24.36;43.56;96129.63;5056562;28;20236;-67
2022/06/19 02:08:03;;;;;;;532.20;502.13;;;;;;;24.21;43.59;96137.50;5073388;28;20181;-68
2022/06/19 02:10:29;;;;;;;562.38;530.78;;;;;;;24.16;43.72;96138.47;5074264;28;20704;-67
2022/06/19 02:12:57;;;;;;;586.47;553.08;;;;;;;24.22;43.64;96141.75;5074416;28;20185;-68
2022/06/19 02:15:22;;;;;;;630.55;594.35;;;;;;;24.17;44.22;96141.94;5074713;28;20189;-68
2022/06/19 02:17:51;;;;;;;704.45;662.40;;;;;;;24.10;44.51;96133.66;5056057;28;20231;-68
2022/06/19 02:20:18;;;;;;;718.15;674.28;;;;;;;24.12;44.61;96136.78;5073297;28;20181;-68
2022/06/19 02:22:44;;;;;;;728.30;682.92;;;;;;;24.11;44.53;96137.91;5074490;28;20188;-68
2022/06/19 02:25:10;;;;;;;708.10;664.38;;;;;;;24.09;44.94;96140.13;5074754;28;20188;-68
2022/06/19 02:27:37;;;;;;;698.17;655.00;;;;;;;24.15;44.19;96134.22;5074800;28;20213;-69
2022/06/19 02:30:05;;;;;;;716.20;672.17;;;;;;;24.11;44.31;96135.22;5075105;28;20212;-68
2022/06/19 02:32:44;;;;;;;725.92;680.42;;;;;;;24.14;44.65;96126.50;5074052;28;20212;-68
2022/06/19 02:35:17;;;;;;;676.22;634.50;;;;;;;24.11;44.41;96124.50;5074773;28;20610;-69
2022/06/19 02:37:46;;;;;;;637.45;598.72;;;;;;;23.98;44.82;96123.66;5074175;28;20213;-68
2022/06/19 02:40:53;;;;;;;601.40;564.40;;;;;;;23.88;45.47;96129.44;5074330;28;20189;-69
2022/06/19 02:43:24;;;;;;;548.35;516.00;;;;;;;23.70;45.56;96126.09;5074739;28;20184;-69
2022/06/19 02:45:50;;;;;;;503.08;473.55;;;;;;;23.68;45.73;96120.31;5074058;28;20204;-69
2022/06/19 02:48:27;;;;;;;512.40;482.23;;;;;;;23.77;45.13;96131.72;5073849;28;20642;-69
2022/06/19 02:50:54;;;;;;;491.45;462.58;;;;;;;23.86;45.30;96135.09;5072059;28;20185;-68
2022/06/19 02:53:20;;;;;;;515.58;486.00;;;;;;;23.89;45.32;96128.31;5074717;28;20557;-69
2022/06/19 02:55:46;;;;;;;499.98;470.30;;;;;;;23.87;44.83;96135.88;5074025;28;20204;-68
2022/06/19 02:58:12;;;;;;;494.65;465.60;;;;;;;23.72;45.31;96129.25;5056120;28;20634;-68
2022/06/19 03:00:38;;;;;;;475.00;447.52;;;;;;;23.83;45.13;96133.09;5074040;28;20319;-69
2022/06/19 03:03:36;;;;;;;451.80;425.52;;;;;;;23.79;45.77;96126.03;5073622;28;20231;-69
2022/06/19 03:06:02;;;;;;;401.83;379.17;;;;;;;23.68;45.72;96128.34;5058071;28;20193;-69
2022/06/19 03:08:28;;;;;;;245.77;231.98;;;;;;;23.78;46.20;96122.59;5073822;28;20194;-69
2022/06/19 03:10:53;;;;;;;237.13;224.18;;;;;;;23.80;46.20;96127.59;5074347;28;20633;-69
2022/06/19 03:13:21;;;;;;;174.95;165.35;;;;;;;23.87;45.80;96114.47;5060352;28;20550;-69
2022/06/19 03:15:47;;;;;;;195.38;184.65;;;;;;;23.87;45.85;96117.94;5073452;28;20204;-69
2022/06/19 03:18:12;;;;;;;154.90;146.05;;;;;;;23.90;45.88;96113.84;5072105;28;20634;-68
2022/06/19 03:20:38;;;;;;;135.20;127.88;;;;;;;23.88;45.94;96116.81;5073665;28;20556;-69
2022/06/19 03:23:03;;;;;;;147.55;138.93;;;;;;;23.78;46.56;96109.19;5073454;28;20189;-69
2022/06/19 03:25:29;;;;;;;138.52;130.52;;;;;;;23.59;46.64;96114.22;5073848;28;20189;-69
2022/06/19 03:27:54;;;;;;;148.32;139.35;;;;;;;23.82;46.35;96103.97;5073575;28;20548;-68
2022/06/19 03:30:21;;;;;;;143.27;134.65;;;;;;;23.74;46.91;96100.25;5073025;28;20262;-68
2022/06/19 03:32:46;;;;;;;135.38;126.65;;;;;;;23.79;46.29;96107.31;5073129;28;20649;-68
2022/06/19 03:35:13;;;;;;;141.43;133.27;;;;;;;23.71;46.27;96108.94;5073060;28;20193;-69
2022/06/19 03:37:39;;;;;;;148.20;139.50;;;;;;;23.67;47.12;96101.88;5073321;28;20209;-67
2022/06/19 03:40:06;;;;;;;148.65;140.38;;;;;;;23.79;46.36;96104.63;5072848;28;20219;-69
2022/06/19 03:42:32;;;;;;;146.60;138.18;;;;;;;23.66;46.87;96094.97;5072953;28;20187;-69
2022/06/19 03:44:58;;;;;;;143.63;134.05;;;;;;;23.68;47.06;96104.25;5072745;28;20260;-67
2022/06/19 03:47:27;;;;;;;142.60;134.30;;;;;;;23.75;46.58;96104.50;5072743;28;20227;-68
2022/06/19 03:49:52;;;;;;;135.85;127.75;;;;;;;23.79;46.93;96100.06;5071477;28;20233;-68
2022/06/19 03:52:18;;;;;;;133.00;125.25;;;;;;;23.83;46.57;96090.25;5073198;28;20219;-68
2022/06/19 03:54:43;;;;;;;155.80;146.80;;;;;;;23.88;46.65;96105.34;5054482;28;20185;-69
2022/06/19 03:57:13;;;;;;;232.38;219.73;;;;;;;23.95;46.61;96094.88;5072966;28;20287;-69
2022/06/19 03:59:38;;;;;;;283.30;267.40;;;;;;;24.11;45.87;96098.50;5072826;28;20185;-69
2022/06/19 04:02:04;;;;;;;414.13;391.10;;;;;;;23.91;46.92;96093.97;5072447;28;20201;-69
2022/06/19 04:04:30;;;;;;;433.35;409.17;;;;;;;24.04;46.29;96096.38;5073851;28;20182;-69
2022/06/19 04:06:56;;;;;;;396.77;374.60;;;;;;;24.34;46.01;96101.63;5072708;28;20193;-69
2022/06/19 04:09:22;;;;;;;355.67;336.77;;;;;;;24.58;45.30;96098.19;5072780;28;20185;-69
2022/06/19 04:11:48;;;;;;;249.50;235.40;;;;;;;24.41;46.16;96088.44;5072202;28;20642;-69
2022/06/19 04:14:15;;;;;;;196.30;185.23;;;;;;;24.58;45.80;96093.63;5071893;28;20185;-68
2022/06/19 04:16:42;;;;;;;163.93;154.80;;;;;;;24.82;45.27;96092.88;5072416;28;20205;-69
2022/06/19 04:19:08;;;;;;;158.43;149.32;;;;;;;24.89;45.29;96093.13;5071429;28;20280;-69
2022/06/19 04:21:38;;;;;;;160.65;152.07;;;;;;;24.80;45.35;96090.53;5072404;28;20583;-69
2022/06/19 04:24:04;;;;;;;139.70;131.75;;;;;;;25.07;44.72;96097.16;5072772;28;20174;-69
2022/06/19 04:26:32;;;;;;;111.25;104.72;;;;;;;25.30;44.17;96096.69;5072172;28;20196;-69
2022/06/19 04:28:58;;;;;;;108.93;102.80;;;;;;;25.22;44.33;96101.06;5073041;28;20185;-69
2022/06/19 04:31:24;;;;;;;151.73;143.40;;;;;;;25.21;44.46;96094.91;5075417;28;20250;-69
2022/06/19 04:33:50;;;;;;;225.95;213.80;;;;;;;25.24;44.49;96101.50;5076482;28;20703;-69
2022/06/19 04:36:18;;;;;;;231.35;218.88;;;;;;;25.73;43.63;96091.47;5075931;28;20562;-69
2022/06/19 04:38:47;;;;;;;139.80;131.93;;;;;;;25.78;43.09;96099.28;5075921;28;20221;-69
2022/06/19 04:41:23;;;;;;;114.75;108.15;;;;;;;25.84;43.03;96100.63;5076465;28;20188;-69
2022/06/19 04:43:49;;;;;;;81.82;76.88;;;;;;;25.97;43.15;96102.13;5076008;28;20185;-69
2022/06/19 04:46:14;;;;;;;80.57;75.57;;;;;;;26.19;42.68;96100.81;5076024;28;20186;-67
2022/06/19 04:48:40;;;;;;;143.73;135.75;;;;;;;26.31;42.52;96110.72;5056796;28;20195;-69
2022/06/19 04:51:05;;;;;;;294.40;278.58;;;;;;;26.34;42.25;96100.09;5076447;28;20192;-69
2022/06/19 04:53:34;;;;;;;277.85;263.75;;;;;;;26.03;42.70;96108.03;5076247;28;20197;-69
2022/06/19 04:56:00;;;;;;;263.42;249.60;;;;;;;26.43;42.07;96108.78;5073021;28;20184;-69
2022/06/19 04:58:26;;;;;;;287.85;272.63;;;;;;;26.64;41.60;96103.16;5075727;28;20186;-67
2022/06/19 05:00:53;;;;;;;334.55;317.02;;;;;;;27.23;40.57;96115.75;5076348;28;20634;-69
2022/06/19 05:03:20;;;;;;;446.30;423.35;;;;;;;27.02;41.05;96109.88;5075555;28;20185;-68
2022/06/19 05:05:47;;;;;;;462.98;439.23;;;;;;;26.93;41.52;96107.34;5075733;28;20271;-68
2022/06/19 05:08:13;;;;;;;499.08;473.88;;;;;;;27.20;40.93;96106.44;5058987;28;20201;-68
2022/06/19 05:10:39;;;;;;;514.45;488.90;;;;;;;27.57;40.25;96114.22;5075729;28;20268;-68
2022/06/19 05:13:06;;;;;;;454.77;432.05;;;;;;;27.49;40.55;96118.63;5075617;28;20280;-67
2022/06/19 05:15:32;;;;;;;388.75;368.55;;;;;;;27.69;40.52;96122.19;5075434;28;20622;-68
2022/06/19 05:17:58;;;;;;;413.10;392.10;;;;;;;27.32;41.00;96119.03;5056070;28;20546;-68
2022/06/19 05:20:23;;;;;;;466.67;442.25;;;;;;;27.65;40.44;96119.41;5075409;28;20182;-67
2022/06/19 05:22:49;;;;;;;469.20;444.42;;;;;;;27.71;40.06;96126.06;5075421;28;20184;-66
2022/06/19 05:25:15;;;;;;;406.70;385.15;;;;;;;27.85;40.21;96124.81;5075582;28;20548;-67
2022/06/19 05:27:40;;;;;;;398.83;377.55;;;;;;;27.46;40.63;96124.72;5075412;28;20618;-68
2022/06/19 05:30:08;;;;;;;338.17;319.83;;;;;;;28.46;38.64;96117.56;5075659;28;20543;-68
2022/06/19 05:32:33;;;;;;;315.98;298.52;;;;;;;28.24;38.89;96112.16;5075952;28;20276;-68
2022/06/19 05:34:59;;;;;;;256.20;242.02;;;;;;;28.61;38.78;96110.50;5076552;28;20212;-68
2022/06/19 05:37:25;;;;;;;226.43;213.35;;;;;;;28.97;38.11;96120.03;5075237;28;20224;-68
2022/06/19 05:39:50;;;;;;;216.65;204.43;;;;;;;28.63;39.23;96110.16;5074740;28;20272;-68
2022/06/19 05:42:15;;;;;;;233.52;220.73;;;;;;;28.64;39.36;96109.81;5074923;28;20182;-69
2022/06/19 05:44:41;;;;;;;323.75;305.67;;;;;;;29.06;38.28;96107.03;5075179;28;20189;-68
2022/06/19 05:47:06;;;;;;;362.83;342.77;;;;;;;29.27;38.33;96120.06;5074709;28;20268;-67
2022/06/19 05:49:34;;;;;;;446.50;421.60;;;;;;;29.02;38.16;96114.31;5073848;28;20696;-66
2022/06/19 05:52:00;;;;;;;466.38;439.83;;;;;;;29.52;37.47;96121.25;5074698;28;20185;-65
2022/06/19 05:54:27;;;;;;;475.85;450.17;;;;;;;29.54;37.68;96118.19;5074784;28;20189;-67
2022/06/19 05:56:52;;;;;;;449.92;425.08;;;;;;;29.25;38.01;96117.75;5075015;28;20300;-66
2022/06/19 05:59:18;;;;;;;371.02;350.02;;;;;;;29.34;37.75;96115.59;5074460;28;20260;-66
2022/06/19 06:01:43;;;;;;;422.38;399.13;;;;;;;29.66;37.82;96116.03;5075044;28;20184;-66
2022/06/19 06:04:09;;;;;;;467.67;442.05;;;;;;;29.52;37.88;96112.38;5056680;28;20198;-68
2022/06/19 06:06:34;;;;;;;497.50;470.40;;;;;;;29.81;37.91;96116.25;5074585;28;20197;-67
2022/06/19 06:09:00;;;;;;;429.92;406.10;;;;;;;29.69;38.54;96106.44;5075198;28;20553;-67
2022/06/19 06:11:25;;;;;;;396.63;375.33;;;;;;;29.84;38.11;96110.88;5075115;28;20200;-69
2022/06/19 06:13:51;;;;;;;409.88;387.75;;;;;;;30.01;37.29;96110.34;5074211;28;20185;-68
2022/06/19 06:16:19;;;;;;;368.08;347.45;;;;;;;29.83;37.35;96116.63;5056381;28;20385;-67
2022/06/19 06:18:45;;;;;;;385.25;364.33;;;;;;;30.04;37.39;96119.63;5070611;28;20193;-67
2022/06/19 06:21:22;;;;;;;369.65;348.85;;;;;;;30.59;36.73;96117.19;5074536;28;20185;-68
2022/06/19 06:23:48;;;;;;;331.13;312.50;;;;;;;30.62;36.71;96125.31;5074233;28;20185;-68
2022/06/19 06:26:20;;;;;;;359.75;338.98;;;;;;;30.73;37.08;96117.28;5074537;28;20710;-68
2022/06/19 06:28:48;;;;;;;352.45;332.58;;;;;;;30.69;37.14;96114.56;5074502;28;20181;-69
2022/06/19 06:31:14;;;;;;;364.30;343.88;;;;;;;30.85;36.56;96119.72;5074381;28;20188;-69
2022/06/19 06:33:40;;;;;;;338.27;319.60;;;;;;;30.83;36.90;96116.59;5074325;28;20180;-69
2022/06/19 06:36:06;;;;;;;365.55;345.52;;;;;;;31.10;36.93;96117.25;5074309;28;20322;-70
2022/06/19 06:38:32;;;;;;;382.20;361.60;;;;;;;31.08;37.11;96120.34;5074517;28;20697;-71
2022/06/19 06:40:57;;;;;;;474.48;447.95;;;;;;;30.94;38.12;96114.75;5074410;28;20190;-70
2022/06/19 06:43:23;;;;;;;494.02;465.92;;;;;;;31.27;37.13;96116.59;5074091;28;20185;-71
2022/06/19 06:45:49;;;;;;;563.00;530.90;;;;;;;31.02;38.05;96110.97;5072788;28;20646;-70
2022/06/19 06:48:16;;;;;;;572.05;540.17;;;;;;;31.07;37.91;96109.88;5071204;28;20219;-70
2022/06/19 06:50:42;;;;;;;589.95;557.20;;;;;;;31.39;37.17;96116.28;5073485;28;20201;-69
2022/06/19 06:53:08;;;;;;;507.48;478.67;;;;;;;31.60;36.84;96111.03;5072525;28;20192;-70
2022/06/19 06:55:38;;;;;;;472.48;446.25;;;;;;;31.41;37.21;96119.41;5073141;28;20226;-70
2022/06/19 06:58:04;;;;;;;453.63;428.25;;;;;;;31.63;37.10;96123.84;5073056;28;20193;-70
2022/06/19 07:00:30;;;;;;;531.45;501.85;;;;;;;31.82;36.96;96111.16;5073378;28;20185;-70
2022/06/19 07:02:55;;;;;;;452.80;427.42;;;;;;;31.97;36.79;96121.69;5073061;28;20208;-69
2022/06/19 07:05:21;;;;;;;512.55;483.88;;;;;;;31.48;37.78;96127.59;5073511;28;20541;-70
2022/06/19 07:07:46;;;;;;;686.42;645.92;;;;;;;31.16;38.46;96119.22;5073235;28;20189;-70
2022/06/19 07:10:12;;;;;;;546.15;515.25;;;;;;;30.77;39.34;96121.59;5074077;28;20193;-70
2022/06/19 07:12:38;;;;;;;460.30;434.48;;;;;;;30.11;41.15;96127.81;5073656;28;20627;-68
2022/06/19 07:15:03;;;;;;;829.38;776.88;;;;;;;30.03;41.98;96120.78;5074168;28;20193;-67
2022/06/19 07:17:29;;;;;;;517.72;489.23;;;;;;;30.03;41.93;96121.56;5068776;28;20243;-67
2022/06/19 07:19:54;;;;;;;94.95;89.20;;;;;;;29.72;42.65;96122.69;5072794;28;20700;-68
2022/06/19 07:22:20;;;;;;;193.95;183.85;;;;;;;29.84;42.98;96124.38;5072812;28;20186;-67
2022/06/19 07:24:46;;;;;;;375.23;354.33;;;;;;;30.27;42.29;96124.91;5073541;28;20548;-68
2022/06/19 07:27:12;;;;;;;398.25;375.77;;;;;;;30.80;41.61;96117.38;5073490;28;20193;-68
2022/06/19 07:29:42;;;;;;;353.77;333.73;;;;;;;30.70;41.71;96120.75;5073370;28;20232;-68
2022/06/19 07:32:08;;;;;;;265.95;251.32;;;;;;;30.74;41.74;96116.16;5073448;28;20185;-67
2022/06/19 07:34:34;;;;;;;308.42;291.13;;;;;;;30.69;41.55;96108.38;5073457;28;20188;-67
2022/06/19 07:36:59;;;;;;;304.55;288.05;;;;;;;31.07;41.22;96112.59;5073166;28;20323;-68
2022/06/19 07:39:25;;;;;;;220.50;207.80;;;;;;;30.98;41.30;96110.94;5072691;28;20600;-69
2022/06/19 07:41:51;;;;;;;292.67;276.80;;;;;;;30.79;42.67;96107.69;5073034;28;20634;-68
2022/06/19 07:44:16;;;;;;;269.42;255.18;;;;;;;31.08;42.33;96111.44;5073004;28;20207;-68
2022/06/19 07:52:29;;;;;;;90.47;84.78;;;;;;;31.06;41.78;96129.97;4971947;28;20207;-71
2022/06/19 07:54:54;;;;;;;90.05;84.55;;;;;;;31.30;41.76;96116.63;5019779;28;20206;-67
2022/06/19 07:57:20;;;;;;;93.47;87.70;;;;;;;31.48;41.39;96122.16;5070808;28;20212;-69
2022/06/19 07:59:45;;;;;;;102.40;96.25;;;;;;;31.72;40.91;96116.13;5072627;28;20215;-72
2022/06/19 08:02:11;;;;;;;158.23;149.35;;;;;;;31.51;41.74;96118.69;5072682;28;20185;-70
2022/06/19 08:04:36;;;;;;;161.15;152.27;;;;;;;31.48;41.87;96113.25;5072291;28;20188;-69
2022/06/19 08:07:01;;;;;;;162.32;153.55;;;;;;;31.93;40.96;96106.56;5054576;28;20645;-69
2022/06/19 08:09:27;;;;;;;166.07;156.95;;;;;;;32.11;40.30;96107.38;5071895;28;20185;-70
2022/06/19 08:11:52;;;;;;;696.87;658.47;;;;;;;32.50;39.97;96115.66;5071559;28;20512;-68
2022/06/19 08:14:17;;;;;;;501.80;473.25;;;;;;;32.53;38.92;96112.97;5070525;28;20454;-70
2022/06/19 08:16:43;;;;;;;528.42;495.25;;;;;;;32.23;40.09;96109.00;5073739;28;20661;-70
2022/06/19 08:19:08;;;;;;;149.07;140.48;;;;;;;32.92;37.82;96120.41;5072365;28;20720;-68
2022/06/19 08:21:34;;;;;;;459.20;431.02;;;;;;;32.84;38.58;96108.75;5073033;28;20573;-68
2022/06/19 08:23:59;;;;;;;641.85;601.92;;;;;;;32.65;38.79;96111.03;5073039;28;20187;-68
2022/06/19 08:26:24;;;;;;;672.28;630.30;;;;;;;33.01;38.41;96113.41;5073111;28;20181;-69
2022/06/19 08:31:15;;;;;;;216.07;203.32;;;;;;;33.19;38.50;96112.66;5073006;28;20197;-68
2022/06/19 08:33:40;;;;;;;387.02;362.27;;;;;;;33.19;38.37;96116.16;5072417;28;20192;-69
2022/06/19 08:36:10;;;;;;;328.57;310.20;;;;;;;33.25;38.50;96108.38;5071422;28;20782;-69
2022/06/19 08:38:40;;;;;;;558.00;526.65;;;;;;;33.10;39.02;96098.69;5071020;28;20446;-69
2022/06/19 08:41:43;;;;;;;400.05;377.67;;;;;;;33.53;38.50;96097.47;5053429;28;20430;-69
2022/06/19 08:44:17;;;;;;;241.75;228.25;;;;;;;33.44;38.63;96104.50;5070789;28;20839;-70
2022/06/19 08:47:01;;;;;;;180.82;170.38;;;;;;;33.56;38.48;96093.94;5068410;28;20414;-68
2022/06/19 08:49:44;;;;;;;206.48;194.85;;;;;;;33.78;38.87;96109.06;5071056;28;20602;-69
2022/06/19 08:52:25;;;;;;;607.38;573.17;;;;;;;33.85;36.92;96102.84;5069123;28;20423;-68
2022/06/19 08:55:05;;;;;;;402.30;379.60;;;;;;;33.68;33.54;96103.63;5070881;28;20414;-71
2022/06/19 08:57:37;;;;;;;49.97;46.22;;;;;;;34.22;33.38;96108.53;5071453;28;20790;-70
2022/06/19 09:00:18;;;;;;;252.88;238.35;;;;;;;34.26;31.82;96102.31;5072160;28;20216;-67
2022/06/19 09:02:55;;;;;;;292.05;275.70;;;;;;;34.38;31.51;96101.84;5072463;28;20619;-67
2022/06/19 09:05:46;;;;;;;246.55;232.88;;;;;;;34.57;30.93;96106.78;5071857;28;20218;-67
2022/06/19 09:08:51;;;;;;;171.02;161.60;;;;;;;34.27;30.64;96107.34;5072236;28;20238;-69
2022/06/19 09:11:34;;;;;;;84.07;79.00;;;;;;;34.47;28.47;96102.16;5072340;28;20915;-67
2022/06/19 09:14:47;;;;;;;115.97;108.70;;;;;;;34.59;29.55;96097.03;5070869;28;20887;-69
2022/06/19 09:17:24;;;;;;;91.68;85.97;;;;;;;34.91;30.32;96102.28;5018820;28;20440;-69
2022/06/19 09:20:02;;;;;;;92.00;86.20;;;;;;;35.02;30.10;96102.97;5059930;28;20199;-68
2022/06/19 09:22:41;;;;;;;249.93;235.90;;;;;;;34.85;30.75;96103.88;5074194;28;20185;-68
2022/06/19 09:25:21;;;;;;;205.63;194.50;;;;;;;34.82;30.40;96096.53;5072935;28;20180;-69
2022/06/19 09:27:54;;;;;;;91.55;85.50;;;;;;;34.88;30.96;96097.66;5073837;28;20181;-68
2022/06/19 09:30:32;;;;;;;100.18;94.03;;;;;;;34.45;29.08;96108.00;5075850;28;20181;-67
2022/06/19 09:33:09;;;;;;;40.72;38.03;;;;;;;34.57;27.37;96101.31;5075944;28;20179;-68
2022/06/19 09:35:41;;;;;;;41.92;39.05;;;;;;;34.62;26.04;96095.47;5075434;28;20525;-68
2022/06/19 09:38:12;;;;;;;34.72;32.05;;;;;;;34.10;26.44;96095.34;5061495;28;20231;-68
2022/06/19 09:40:42;;;;;;;45.30;42.00;;;;;;;34.10;27.02;96100.78;5075423;28;20278;-68
2022/06/19 09:43:16;;;;;;;45.60;42.28;;;;;;;34.34;26.71;96107.28;5075363;28;20246;-68
2022/06/19 09:45:52;;;;;;;38.42;35.58;;;;;;;34.33;26.04;96092.13;5073041;28;20654;-68
2022/06/19 09:48:34;;;;;;;39.42;36.78;;;;;;;34.28;25.76;96089.06;5075300;28;20192;-68
2022/06/19 09:51:05;;;;;;;42.53;38.58;;;;;;;34.19;25.60;96098.44;5075567;28;20625;-68
2022/06/19 09:53:50;;;;;;;37.60;34.85;;;;;;;34.25;26.00;96087.13;5074895;28;20587;-69
2022/06/19 09:56:42;;;;;;;37.53;34.78;;;;;;;34.37;25.36;96081.25;5075646;28;20169;-69
2022/06/19 09:59:26;;;;;;;46.50;43.53;;;;;;;34.36;26.14;96085.13;5075146;28;20654;-68
2022/06/19 10:01:58;;;;;;;41.53;38.55;;;;;;;34.21;26.60;96092.59;5074931;28;20177;-68
2022/06/19 10:04:43;;;;;;;46.38;42.95;;;;;;;34.25;26.28;96079.75;5075578;28;20184;-68
2022/06/19 10:07:18;;;;;;;46.33;42.97;;;;;;;34.30;26.43;96081.28;5075512;28;20526;-68
2022/06/19 10:09:52;;;;;;;46.25;42.88;;;;;;;34.53;26.77;96079.56;5074769;28;20238;-68
2022/06/19 10:12:26;;;;;;;51.92;48.17;;;;;;;34.56;26.41;96089.66;5075349;28;20185;-68
2022/06/19 10:14:53;;;;;;;42.65;39.45;;;;;;;34.12;26.58;96081.34;5074209;28;20198;-68
2022/06/19 10:17:27;;;;;;;40.88;38.00;;;;;;;34.35;25.69;96078.13;5065923;28;20206;-68
2022/06/19 10:20:03;;;;;;;41.50;38.42;;;;;;;34.34;26.05;96079.31;5073789;28;20330;-68
2022/06/19 10:23:02;;;;;;;42.30;39.40;;;;;;;34.37;26.19;96073.84;5074790;28;20260;-68
2022/06/19 10:25:39;;;;;;;42.70;39.55;;;;;;;34.25;26.73;96087.91;5075139;28;20705;-67
2022/06/19 10:28:26;;;;;;;39.55;36.70;;;;;;;34.04;25.77;96080.63;5073430;28;20177;-68
2022/06/19 10:31:03;;;;;;;109.03;102.63;;;;;;;34.28;26.10;96087.09;5073729;28;20440;-68
2022/06/19 10:33:29;;;;;;;34.25;31.83;;;;;;;34.14;25.79;96089.88;5075402;28;20588;-68
2022/06/19 10:36:04;;;;;;;18.27;16.63;;;;;;;34.08;26.02;96083.31;5074048;28;20646;-68
2022/06/19 10:38:54;;;;;;;22.42;19.98;;;;;;;33.99;25.88;96077.53;5071594;28;20232;-69
2022/06/19 10:44:24;;;;;;;30.30;28.17;;;;;;;34.33;25.52;96077.78;5073841;28;20260;-69
2022/06/19 10:47:22;;;;;;;27.23;24.58;;;;;;;34.06;26.24;96074.75;5071397;28;20196;-69
2022/06/19 10:50:06;;;;;;;30.08;27.52;;;;;;;34.17;25.80;96062.66;5042709;28;20205;-70
2022/06/19 10:52:58;;;;;;;29.75;27.50;;;;;;;34.29;25.61;96058.72;5061415;28;20195;-71
2022/06/19 10:55:36;;;;;;;32.47;29.40;;;;;;;34.04;26.54;96058.84;5073473;28;20213;-70
2022/06/19 10:58:14;;;;;;;37.53;34.72;;;;;;;34.07;26.38;96070.88;5072910;28;20224;-70
2022/06/19 11:00:40;;;;;;;38.70;35.08;;;;;;;34.19;26.50;96060.34;5073898;28;20181;-70
2022/06/19 11:06:37;;;;;;;32.40;30.27;;;;;;;34.35;26.44;96061.81;5056971;28;20223;-67
2022/06/19 11:09:10;;;;;;;29.23;26.92;;;;;;;34.29;25.35;96050.56;5075365;28;20276;-69
2022/06/19 11:11:38;;;;;;;33.35;30.85;;;;;;;34.20;24.69;96042.06;5069121;28;20189;-68
2022/06/19 11:14:09;;;;;;;68.90;64.22;;;;;;;34.17;24.90;96046.31;5073426;28;20219;-68
2022/06/19 11:16:55;;;;;;;68.13;63.80;;;;;;;34.25;24.45;96038.94;5068074;28;21677;-68
2022/06/19 11:19:32;;;;;;;57.15;53.40;;;;;;;34.52;24.88;96039.13;5073849;28;20656;-68
2022/06/19 11:21:57;;;;;;;61.95;58.33;;;;;;;34.50;24.81;96044.19;5070503;28;20173;-68
2022/06/19 11:24:31;;;;;;;68.60;64.43;;;;;;;34.09;23.68;96039.38;5072757;28;20185;-68
2022/06/19 11:26:58;;;;;;;56.80;51.67;;;;;;;34.42;24.03;96042.72;5073151;28;20177;-68
2022/06/19 11:29:25;;;;;;;69.78;65.70;;;;;;;34.25;24.81;96047.09;5073294;28;20272;-69
2022/06/19 11:32:09;;;;;;;50.17;46.30;;;;;;;34.22;24.39;96032.31;5072988;28;20185;-69
2022/06/19 11:34:48;;;;;;;54.72;50.95;;;;;;;34.30;24.24;96035.78;5072974;28;20189;-68